sensor_id;sensor_type;location;lat;lon;timestamp;P1;durP1;ratioP1;P2;durP2;ratioP2
71298;SDS011;59083;47.974;21.722;2023-03-29T00:02:37;7.57;;;3.03;;
71298;SDS011;59083;47.974;21.722;2023-03-29T00:05:38;14.38;;;3.53;;
71298;SDS011;59083;47.974;21.722;2023-03-29T00:08:40;5.90;;;3.03;;
71298;SDS011;59083;47.974;21.722;2023-03-29T00:11:42;5.73;;;3.20;;
71298;SDS011;59083;47.974;21.722;2023-03-29T00:14:44;6.68;;;3.28;;
71298;SDS011;59083;47.974;21.722;2023-03-29T00:17:45;6.87;;;3.30;;
71298;SDS011;59083;47.974;21.722;2023-03-29T00:20:52;7.80;;;3.35;;
71298;SDS011;59083;47.974;21.722;2023-03-29T00:23:58;7.23;;;3.30;;
71298;SDS011;59083;47.974;21.722;2023-03-29T00:26:59;9.93;;;3.60;;
71298;SDS011;59083;47.974;21.722;2023-03-29T00:30:01;6.45;;;3.40;;
71298;SDS011;59083;47.974;21.722;2023-03-29T00:33:03;7.22;;;3.25;;
71298;SDS011;59083;47.974;21.722;2023-03-29T00:36:05;8.50;;;3.45;;
71298;SDS011;59083;47.974;21.722;2023-03-29T00:39:08;7.40;;;3.33;;
71298;SDS011;59083;47.974;21.722;2023-03-29T00:42:11;5.87;;;3.00;;
71298;SDS011;59083;47.974;21.722;2023-03-29T00:45:20;7.43;;;3.47;;
71298;SDS011;59083;47.974;21.722;2023-03-29T00:48:25;7.10;;;3.10;;
71298;SDS011;59083;47.974;21.722;2023-03-29T00:51:30;6.78;;;3.20;;
71298;SDS011;59083;47.974;21.722;2023-03-29T00:54:34;7.93;;;3.33;;
71298;SDS011;59083;47.974;21.722;2023-03-29T00:57:38;5.87;;;3.10;;
71298;SDS011;59083;47.974;21.722;2023-03-29T01:00:47;6.65;;;3.35;;
71298;SDS011;59083;47.974;21.722;2023-03-29T01:04:02;6.20;;;3.30;;
71298;SDS011;59083;47.974;21.722;2023-03-29T01:07:12;6.97;;;3.40;;
71298;SDS011;59083;47.974;21.722;2023-03-29T01:10:25;6.83;;;3.33;;
71298;SDS011;59083;47.974;21.722;2023-03-29T01:13:36;6.73;;;3.10;;
71298;SDS011;59083;47.974;21.722;2023-03-29T01:16:41;7.28;;;3.40;;
71298;SDS011;59083;47.974;21.722;2023-03-29T01:19:44;8.75;;;3.20;;
71298;SDS011;59083;47.974;21.722;2023-03-29T01:23:02;6.80;;;3.40;;
71298;SDS011;59083;47.974;21.722;2023-03-29T01:29:33;6.97;;;3.50;;
71298;SDS011;59083;47.974;21.722;2023-03-29T01:35:53;6.90;;;3.30;;
71298;SDS011;59083;47.974;21.722;2023-03-29T01:38:58;8.80;;;4.22;;
71298;SDS011;59083;47.974;21.722;2023-03-29T01:42:12;8.50;;;3.90;;
71298;SDS011;59083;47.974;21.722;2023-03-29T01:45:46;10.30;;;4.10;;
71298;SDS011;59083;47.974;21.722;2023-03-29T01:48:55;6.95;;;3.55;;
71298;SDS011;59083;47.974;21.722;2023-03-29T01:52:02;9.27;;;4.03;;
71298;SDS011;59083;47.974;21.722;2023-03-29T01:55:10;8.13;;;3.80;;
71298;SDS011;59083;47.974;21.722;2023-03-29T01:58:17;9.17;;;3.73;;
71298;SDS011;59083;47.974;21.722;2023-03-29T02:01:23;8.23;;;4.00;;
71298;SDS011;59083;47.974;21.722;2023-03-29T02:04:28;7.55;;;3.10;;
71298;SDS011;59083;47.974;21.722;2023-03-29T02:07:32;6.87;;;3.30;;
71298;SDS011;59083;47.974;21.722;2023-03-29T02:10:37;9.75;;;4.28;;
71298;SDS011;59083;47.974;21.722;2023-03-29T02:13:39;8.10;;;3.60;;
71298;SDS011;59083;47.974;21.722;2023-03-29T02:16:40;14.90;;;5.20;;
71298;SDS011;59083;47.974;21.722;2023-03-29T02:19:42;15.65;;;6.07;;
71298;SDS011;59083;47.974;21.722;2023-03-29T02:26:09;14.32;;;5.12;;
71298;SDS011;59083;47.974;21.722;2023-03-29T02:29:11;14.43;;;5.03;;
71298;SDS011;59083;47.974;21.722;2023-03-29T02:32:36;11.17;;;4.57;;
71298;SDS011;59083;47.974;21.722;2023-03-29T02:35:43;10.18;;;4.68;;
71298;SDS011;59083;47.974;21.722;2023-03-29T02:38:48;13.93;;;5.15;;
71298;SDS011;59083;47.974;21.722;2023-03-29T02:41:51;12.18;;;5.05;;
71298;SDS011;59083;47.974;21.722;2023-03-29T02:44:54;15.00;;;5.50;;
71298;SDS011;59083;47.974;21.722;2023-03-29T02:48:02;14.77;;;5.80;;
71298;SDS011;59083;47.974;21.722;2023-03-29T02:51:14;17.10;;;4.80;;
71298;SDS011;59083;47.974;21.722;2023-03-29T02:54:20;13.07;;;4.93;;
71298;SDS011;59083;47.974;21.722;2023-03-29T02:57:26;12.20;;;4.90;;
71298;SDS011;59083;47.974;21.722;2023-03-29T03:00:28;11.70;;;4.40;;
71298;SDS011;59083;47.974;21.722;2023-03-29T03:03:30;11.33;;;4.70;;
71298;SDS011;59083;47.974;21.722;2023-03-29T03:06:32;13.48;;;5.47;;
71298;SDS011;59083;47.974;21.722;2023-03-29T03:09:33;14.48;;;5.20;;
71298;SDS011;59083;47.974;21.722;2023-03-29T03:12:35;11.57;;;4.53;;
71298;SDS011;59083;47.974;21.722;2023-03-29T03:15:40;12.53;;;4.63;;
71298;SDS011;59083;47.974;21.722;2023-03-29T03:18:42;14.50;;;4.30;;
71298;SDS011;59083;47.974;21.722;2023-03-29T03:21:45;12.40;;;4.03;;
71298;SDS011;59083;47.974;21.722;2023-03-29T03:24:48;10.57;;;4.28;;
71298;SDS011;59083;47.974;21.722;2023-03-29T03:27:50;9.27;;;3.45;;
71298;SDS011;59083;47.974;21.722;2023-03-29T03:30:52;8.23;;;3.40;;
71298;SDS011;59083;47.974;21.722;2023-03-29T03:33:56;11.07;;;3.67;;
71298;SDS011;59083;47.974;21.722;2023-03-29T03:36:58;10.15;;;3.15;;
71298;SDS011;59083;47.974;21.722;2023-03-29T03:40:02;7.28;;;2.87;;
71298;SDS011;59083;47.974;21.722;2023-03-29T03:43:04;8.07;;;3.35;;
71298;SDS011;59083;47.974;21.722;2023-03-29T03:46:07;7.70;;;3.53;;
71298;SDS011;59083;47.974;21.722;2023-03-29T03:49:08;15.93;;;7.13;;
71298;SDS011;59083;47.974;21.722;2023-03-29T03:52:11;8.55;;;4.30;;
71298;SDS011;59083;47.974;21.722;2023-03-29T03:55:13;10.10;;;4.80;;
71298;SDS011;59083;47.974;21.722;2023-03-29T03:58:16;8.75;;;4.05;;
71298;SDS011;59083;47.974;21.722;2023-03-29T04:01:18;8.53;;;3.70;;
71298;SDS011;59083;47.974;21.722;2023-03-29T04:04:20;7.93;;;3.40;;
71298;SDS011;59083;47.974;21.722;2023-03-29T04:07:24;7.43;;;3.40;;
71298;SDS011;59083;47.974;21.722;2023-03-29T04:10:25;5.80;;;2.47;;
71298;SDS011;59083;47.974;21.722;2023-03-29T04:13:26;7.20;;;2.92;;
71298;SDS011;59083;47.974;21.722;2023-03-29T04:16:34;6.03;;;2.73;;
71298;SDS011;59083;47.974;21.722;2023-03-29T04:19:36;6.97;;;3.30;;
71298;SDS011;59083;47.974;21.722;2023-03-29T04:22:38;11.23;;;4.32;;
71298;SDS011;59083;47.974;21.722;2023-03-29T04:25:39;9.45;;;3.40;;
71298;SDS011;59083;47.974;21.722;2023-03-29T04:28:44;9.18;;;3.70;;
71298;SDS011;59083;47.974;21.722;2023-03-29T04:31:46;8.07;;;3.70;;
71298;SDS011;59083;47.974;21.722;2023-03-29T04:34:48;13.80;;;5.13;;
71298;SDS011;59083;47.974;21.722;2023-03-29T04:37:50;8.95;;;4.25;;
71298;SDS011;59083;47.974;21.722;2023-03-29T04:40:55;12.02;;;4.60;;
71298;SDS011;59083;47.974;21.722;2023-03-29T04:43:56;12.18;;;4.87;;
71298;SDS011;59083;47.974;21.722;2023-03-29T04:47:01;9.13;;;4.03;;
71298;SDS011;59083;47.974;21.722;2023-03-29T04:50:04;7.97;;;3.63;;
71298;SDS011;59083;47.974;21.722;2023-03-29T04:53:08;10.23;;;4.00;;
71298;SDS011;59083;47.974;21.722;2023-03-29T04:56:10;8.77;;;4.20;;
71298;SDS011;59083;47.974;21.722;2023-03-29T04:59:12;11.27;;;4.57;;
71298;SDS011;59083;47.974;21.722;2023-03-29T05:02:14;11.40;;;4.00;;
71298;SDS011;59083;47.974;21.722;2023-03-29T05:05:16;12.03;;;3.80;;
71298;SDS011;59083;47.974;21.722;2023-03-29T05:08:18;7.72;;;3.50;;
71298;SDS011;59083;47.974;21.722;2023-03-29T05:11:22;9.63;;;3.75;;
71298;SDS011;59083;47.974;21.722;2023-03-29T05:14:25;7.55;;;3.25;;
71298;SDS011;59083;47.974;21.722;2023-03-29T05:17:26;9.40;;;3.90;;
71298;SDS011;59083;47.974;21.722;2023-03-29T05:20:27;11.00;;;4.83;;
71298;SDS011;59083;47.974;21.722;2023-03-29T05:23:30;7.00;;;2.78;;
71298;SDS011;59083;47.974;21.722;2023-03-29T05:26:34;7.68;;;3.00;;
71298;SDS011;59083;47.974;21.722;2023-03-29T05:29:35;9.00;;;3.40;;
71298;SDS011;59083;47.974;21.722;2023-03-29T05:32:40;7.80;;;3.00;;
71298;SDS011;59083;47.974;21.722;2023-03-29T05:35:42;7.90;;;3.00;;
71298;SDS011;59083;47.974;21.722;2023-03-29T05:38:44;8.10;;;3.03;;
71298;SDS011;59083;47.974;21.722;2023-03-29T05:41:46;10.20;;;4.80;;
71298;SDS011;59083;47.974;21.722;2023-03-29T05:44:48;6.53;;;2.33;;
71298;SDS011;59083;47.974;21.722;2023-03-29T05:47:49;6.20;;;2.57;;
71298;SDS011;59083;47.974;21.722;2023-03-29T05:50:51;8.10;;;2.87;;
71298;SDS011;59083;47.974;21.722;2023-03-29T05:53:54;7.32;;;3.20;;
71298;SDS011;59083;47.974;21.722;2023-03-29T05:56:55;13.98;;;5.18;;
71298;SDS011;59083;47.974;21.722;2023-03-29T05:59:57;7.87;;;3.00;;
71298;SDS011;59083;47.974;21.722;2023-03-29T06:02:58;11.50;;;4.87;;
71298;SDS011;59083;47.974;21.722;2023-03-29T06:06:01;6.43;;;2.87;;
71298;SDS011;59083;47.974;21.722;2023-03-29T06:09:03;7.00;;;3.00;;
71298;SDS011;59083;47.974;21.722;2023-03-29T06:12:06;8.73;;;3.10;;
71298;SDS011;59083;47.974;21.722;2023-03-29T06:15:08;9.70;;;3.65;;
71298;SDS011;59083;47.974;21.722;2023-03-29T06:18:11;8.17;;;3.43;;
71298;SDS011;59083;47.974;21.722;2023-03-29T06:21:12;9.67;;;3.70;;
71298;SDS011;59083;47.974;21.722;2023-03-29T06:24:14;8.75;;;3.20;;
71298;SDS011;59083;47.974;21.722;2023-03-29T06:27:17;8.30;;;3.47;;
71298;SDS011;59083;47.974;21.722;2023-03-29T06:30:19;7.30;;;3.40;;
71298;SDS011;59083;47.974;21.722;2023-03-29T06:33:21;7.85;;;3.58;;
71298;SDS011;59083;47.974;21.722;2023-03-29T06:36:24;12.07;;;5.47;;
71298;SDS011;59083;47.974;21.722;2023-03-29T06:39:26;10.00;;;2.97;;
71298;SDS011;59083;47.974;21.722;2023-03-29T06:42:29;9.63;;;4.25;;
71298;SDS011;59083;47.974;21.722;2023-03-29T06:45:32;8.07;;;3.20;;
71298;SDS011;59083;47.974;21.722;2023-03-29T06:48:38;9.32;;;3.80;;
71298;SDS011;59083;47.974;21.722;2023-03-29T06:51:41;7.03;;;3.00;;
71298;SDS011;59083;47.974;21.722;2023-03-29T06:54:42;8.18;;;3.72;;
71298;SDS011;59083;47.974;21.722;2023-03-29T06:57:43;8.02;;;3.40;;
71298;SDS011;59083;47.974;21.722;2023-03-29T07:00:45;9.40;;;3.00;;
71298;SDS011;59083;47.974;21.722;2023-03-29T07:03:47;8.27;;;3.00;;
71298;SDS011;59083;47.974;21.722;2023-03-29T07:06:50;14.53;;;6.10;;
71298;SDS011;59083;47.974;21.722;2023-03-29T07:10:01;7.60;;;2.97;;
71298;SDS011;59083;47.974;21.722;2023-03-29T07:13:09;7.30;;;2.53;;
71298;SDS011;59083;47.974;21.722;2023-03-29T07:16:14;6.75;;;3.00;;
71298;SDS011;59083;47.974;21.722;2023-03-29T07:19:17;7.77;;;2.70;;
71298;SDS011;59083;47.974;21.722;2023-03-29T07:22:23;7.00;;;2.90;;
71298;SDS011;59083;47.974;21.722;2023-03-29T07:25:25;9.45;;;2.67;;
71298;SDS011;59083;47.974;21.722;2023-03-29T07:28:27;6.90;;;2.70;;
71298;SDS011;59083;47.974;21.722;2023-03-29T07:31:28;7.55;;;2.85;;
71298;SDS011;59083;47.974;21.722;2023-03-29T07:34:30;6.00;;;2.50;;
71298;SDS011;59083;47.974;21.722;2023-03-29T07:37:33;9.03;;;2.77;;
71298;SDS011;59083;47.974;21.722;2023-03-29T07:40:37;7.15;;;3.00;;
71298;SDS011;59083;47.974;21.722;2023-03-29T07:43:41;7.65;;;3.10;;
71298;SDS011;59083;47.974;21.722;2023-03-29T07:46:43;11.18;;;3.65;;
71298;SDS011;59083;47.974;21.722;2023-03-29T07:49:44;9.07;;;4.43;;
71298;SDS011;59083;47.974;21.722;2023-03-29T07:52:46;12.23;;;4.07;;
71298;SDS011;59083;47.974;21.722;2023-03-29T07:55:48;9.77;;;3.83;;
71298;SDS011;59083;47.974;21.722;2023-03-29T07:58:53;8.45;;;3.85;;
71298;SDS011;59083;47.974;21.722;2023-03-29T08:01:55;8.00;;;3.60;;
71298;SDS011;59083;47.974;21.722;2023-03-29T08:04:57;7.47;;;3.53;;
71298;SDS011;59083;47.974;21.722;2023-03-29T08:08:00;6.80;;;3.10;;
71298;SDS011;59083;47.974;21.722;2023-03-29T08:11:02;8.55;;;3.35;;
71298;SDS011;59083;47.974;21.722;2023-03-29T08:14:04;6.60;;;3.22;;
71298;SDS011;59083;47.974;21.722;2023-03-29T08:17:07;7.25;;;2.83;;
71298;SDS011;59083;47.974;21.722;2023-03-29T08:20:10;16.33;;;3.90;;
71298;SDS011;59083;47.974;21.722;2023-03-29T08:23:14;7.73;;;3.60;;
71298;SDS011;59083;47.974;21.722;2023-03-29T08:26:16;9.02;;;3.97;;
71298;SDS011;59083;47.974;21.722;2023-03-29T08:29:18;7.37;;;3.20;;
71298;SDS011;59083;47.974;21.722;2023-03-29T08:32:19;7.07;;;3.22;;
71298;SDS011;59083;47.974;21.722;2023-03-29T08:35:21;7.87;;;3.37;;
71298;SDS011;59083;47.974;21.722;2023-03-29T08:38:23;9.30;;;3.80;;
71298;SDS011;59083;47.974;21.722;2023-03-29T08:48:16;8.00;;;3.83;;
71298;SDS011;59083;47.974;21.722;2023-03-29T08:51:41;7.90;;;3.50;;
71298;SDS011;59083;47.974;21.722;2023-03-29T08:54:48;7.57;;;3.80;;
71298;SDS011;59083;47.974;21.722;2023-03-29T08:57:55;7.60;;;3.65;;
71298;SDS011;59083;47.974;21.722;2023-03-29T09:01:03;6.53;;;3.40;;
71298;SDS011;59083;47.974;21.722;2023-03-29T09:04:16;7.55;;;3.83;;
71298;SDS011;59083;47.974;21.722;2023-03-29T09:07:23;6.30;;;3.27;;
71298;SDS011;59083;47.974;21.722;2023-03-29T09:10:27;8.33;;;3.57;;
71298;SDS011;59083;47.974;21.722;2023-03-29T09:13:41;8.05;;;3.70;;
71298;SDS011;59083;47.974;21.722;2023-03-29T09:27:09;6.27;;;2.80;;
71298;SDS011;59083;47.974;21.722;2023-03-29T09:30:24;7.43;;;2.92;;
71298;SDS011;59083;47.974;21.722;2023-03-29T09:36:48;6.70;;;2.37;;
71298;SDS011;59083;47.974;21.722;2023-03-29T09:39:52;5.95;;;2.60;;
71298;SDS011;59083;47.974;21.722;2023-03-29T09:42:57;6.63;;;3.13;;
71298;SDS011;59083;47.974;21.722;2023-03-29T09:46:03;6.15;;;2.55;;
71298;SDS011;59083;47.974;21.722;2023-03-29T09:49:11;7.00;;;2.67;;
71298;SDS011;59083;47.974;21.722;2023-03-29T09:52:17;5.03;;;2.40;;
71298;SDS011;59083;47.974;21.722;2023-03-29T09:55:24;14.43;;;7.40;;
71298;SDS011;59083;47.974;21.722;2023-03-29T09:58:28;5.57;;;2.50;;
71298;SDS011;59083;47.974;21.722;2023-03-29T10:01:41;6.43;;;2.67;;
71298;SDS011;59083;47.974;21.722;2023-03-29T10:04:50;6.68;;;2.42;;
71298;SDS011;59083;47.974;21.722;2023-03-29T10:07:56;7.82;;;3.10;;
71298;SDS011;59083;47.974;21.722;2023-03-29T10:11:22;7.15;;;3.10;;
71298;SDS011;59083;47.974;21.722;2023-03-29T10:14:32;5.10;;;2.60;;
71298;SDS011;59083;47.974;21.722;2023-03-29T10:17:38;6.72;;;2.85;;
71298;SDS011;59083;47.974;21.722;2023-03-29T10:20:40;6.05;;;2.80;;
71298;SDS011;59083;47.974;21.722;2023-03-29T10:23:42;7.07;;;2.85;;
71298;SDS011;59083;47.974;21.722;2023-03-29T10:26:43;5.97;;;2.43;;
71298;SDS011;59083;47.974;21.722;2023-03-29T10:29:45;5.13;;;2.40;;
71298;SDS011;59083;47.974;21.722;2023-03-29T10:32:50;6.18;;;2.70;;
71298;SDS011;59083;47.974;21.722;2023-03-29T10:35:59;5.10;;;2.45;;
71298;SDS011;59083;47.974;21.722;2023-03-29T10:39:05;7.97;;;2.70;;
71298;SDS011;59083;47.974;21.722;2023-03-29T10:42:06;6.20;;;2.92;;
71298;SDS011;59083;47.974;21.722;2023-03-29T10:45:24;7.17;;;3.07;;
71298;SDS011;59083;47.974;21.722;2023-03-29T10:48:29;5.78;;;2.47;;
71298;SDS011;59083;47.974;21.722;2023-03-29T10:51:31;5.32;;;2.30;;
71298;SDS011;59083;47.974;21.722;2023-03-29T10:54:34;9.73;;;2.35;;
71298;SDS011;59083;47.974;21.722;2023-03-29T10:57:39;5.85;;;2.60;;
71298;SDS011;59083;47.974;21.722;2023-03-29T11:00:49;7.73;;;2.83;;
71298;SDS011;59083;47.974;21.722;2023-03-29T11:17:41;8.37;;;3.53;;
71298;SDS011;59083;47.974;21.722;2023-03-29T11:20:48;4.75;;;2.05;;
71298;SDS011;59083;47.974;21.722;2023-03-29T11:31:23;6.30;;;2.10;;
71298;SDS011;59083;47.974;21.722;2023-03-29T11:34:54;4.57;;;1.97;;
71298;SDS011;59083;47.974;21.722;2023-03-29T11:41:27;5.22;;;2.08;;
71298;SDS011;59083;47.974;21.722;2023-03-29T11:44:32;5.75;;;2.10;;
71298;SDS011;59083;47.974;21.722;2023-03-29T11:47:36;4.47;;;2.10;;
71298;SDS011;59083;47.974;21.722;2023-03-29T11:50:49;5.73;;;2.10;;
71298;SDS011;59083;47.974;21.722;2023-03-29T11:57:04;5.55;;;2.30;;
71298;SDS011;59083;47.974;21.722;2023-03-29T12:00:20;5.60;;;2.10;;
71298;SDS011;59083;47.974;21.722;2023-03-29T12:03:35;4.70;;;2.03;;
71298;SDS011;59083;47.974;21.722;2023-03-29T12:06:43;5.87;;;2.60;;
71298;SDS011;59083;47.974;21.722;2023-03-29T12:10:18;7.20;;;2.30;;
71298;SDS011;59083;47.974;21.722;2023-03-29T12:13:23;10.00;;;2.60;;
71298;SDS011;59083;47.974;21.722;2023-03-29T12:19:59;4.97;;;2.10;;
71298;SDS011;59083;47.974;21.722;2023-03-29T12:23:06;7.10;;;2.33;;
71298;SDS011;59083;47.974;21.722;2023-03-29T12:36:34;7.03;;;2.60;;
71298;SDS011;59083;47.974;21.722;2023-03-29T12:39:42;7.77;;;2.70;;
71298;SDS011;59083;47.974;21.722;2023-03-29T12:42:47;5.18;;;2.47;;
71298;SDS011;59083;47.974;21.722;2023-03-29T12:45:54;5.65;;;2.40;;
71298;SDS011;59083;47.974;21.722;2023-03-29T12:48:59;4.87;;;2.10;;
71298;SDS011;59083;47.974;21.722;2023-03-29T12:55:29;8.00;;;3.43;;
71298;SDS011;59083;47.974;21.722;2023-03-29T12:58:39;4.55;;;1.83;;
71298;SDS011;59083;47.974;21.722;2023-03-29T13:01:55;6.15;;;2.40;;
71298;SDS011;59083;47.974;21.722;2023-03-29T13:05:01;5.82;;;2.42;;
71298;SDS011;59083;47.974;21.722;2023-03-29T13:08:21;5.57;;;2.40;;
71298;SDS011;59083;47.974;21.722;2023-03-29T13:11:26;4.83;;;1.90;;
71298;SDS011;59083;47.974;21.722;2023-03-29T13:14:34;5.40;;;2.10;;
71298;SDS011;59083;47.974;21.722;2023-03-29T13:21:10;7.10;;;3.05;;
71298;SDS011;59083;47.974;21.722;2023-03-29T13:27:56;6.07;;;2.20;;
71298;SDS011;59083;47.974;21.722;2023-03-29T13:34:43;4.25;;;2.10;;
71298;SDS011;59083;47.974;21.722;2023-03-29T13:38:12;4.75;;;1.90;;
71298;SDS011;59083;47.974;21.722;2023-03-29T13:41:42;6.75;;;2.37;;
71298;SDS011;59083;47.974;21.722;2023-03-29T13:44:46;6.43;;;2.10;;
71298;SDS011;59083;47.974;21.722;2023-03-29T13:55:19;5.68;;;2.33;;
71298;SDS011;59083;47.974;21.722;2023-03-29T14:01:38;5.67;;;2.10;;
71298;SDS011;59083;47.974;21.722;2023-03-29T14:04:45;4.53;;;2.10;;
71298;SDS011;59083;47.974;21.722;2023-03-29T14:07:51;9.07;;;4.10;;
71298;SDS011;59083;47.974;21.722;2023-03-29T14:10:54;6.12;;;2.33;;
71298;SDS011;59083;47.974;21.722;2023-03-29T14:13:56;10.05;;;3.20;;
71298;SDS011;59083;47.974;21.722;2023-03-29T14:16:59;5.80;;;2.30;;
71298;SDS011;59083;47.974;21.722;2023-03-29T14:20:00;6.32;;;2.00;;
71298;SDS011;59083;47.974;21.722;2023-03-29T14:23:09;4.80;;;2.00;;
71298;SDS011;59083;47.974;21.722;2023-03-29T14:26:16;6.20;;;1.80;;
71298;SDS011;59083;47.974;21.722;2023-03-29T14:29:21;6.90;;;2.12;;
71298;SDS011;59083;47.974;21.722;2023-03-29T14:32:27;5.33;;;2.07;;
71298;SDS011;59083;47.974;21.722;2023-03-29T14:35:30;5.10;;;2.00;;
71298;SDS011;59083;47.974;21.722;2023-03-29T14:38:34;5.37;;;2.00;;
71298;SDS011;59083;47.974;21.722;2023-03-29T14:41:37;8.50;;;3.17;;
71298;SDS011;59083;47.974;21.722;2023-03-29T14:44:38;7.18;;;2.97;;
71298;SDS011;59083;47.974;21.722;2023-03-29T14:47:40;8.73;;;2.97;;
71298;SDS011;59083;47.974;21.722;2023-03-29T14:50:42;5.68;;;2.10;;
71298;SDS011;59083;47.974;21.722;2023-03-29T14:53:46;6.47;;;2.62;;
71298;SDS011;59083;47.974;21.722;2023-03-29T14:56:49;6.47;;;2.40;;
71298;SDS011;59083;47.974;21.722;2023-03-29T14:59:52;6.03;;;2.50;;
71298;SDS011;59083;47.974;21.722;2023-03-29T15:03:01;5.90;;;2.60;;
71298;SDS011;59083;47.974;21.722;2023-03-29T15:06:02;7.47;;;2.58;;
71298;SDS011;59083;47.974;21.722;2023-03-29T15:09:04;6.50;;;2.72;;
71298;SDS011;59083;47.974;21.722;2023-03-29T15:12:06;6.68;;;2.60;;
71298;SDS011;59083;47.974;21.722;2023-03-29T15:15:13;11.73;;;5.28;;
71298;SDS011;59083;47.974;21.722;2023-03-29T15:18:16;24.23;;;8.77;;
71298;SDS011;59083;47.974;21.722;2023-03-29T15:21:21;8.82;;;3.45;;
71298;SDS011;59083;47.974;21.722;2023-03-29T15:24:29;7.00;;;2.75;;
71298;SDS011;59083;47.974;21.722;2023-03-29T15:27:38;7.03;;;2.85;;
71298;SDS011;59083;47.974;21.722;2023-03-29T15:30:42;6.97;;;2.60;;
71298;SDS011;59083;47.974;21.722;2023-03-29T15:33:44;5.63;;;2.30;;
71298;SDS011;59083;47.974;21.722;2023-03-29T15:36:45;4.40;;;2.03;;
71298;SDS011;59083;47.974;21.722;2023-03-29T15:39:47;4.90;;;2.30;;
71298;SDS011;59083;47.974;21.722;2023-03-29T15:42:49;5.10;;;2.10;;
71298;SDS011;59083;47.974;21.722;2023-03-29T15:45:53;8.98;;;2.80;;
71298;SDS011;59083;47.974;21.722;2023-03-29T15:48:54;5.33;;;2.33;;
71298;SDS011;59083;47.974;21.722;2023-03-29T15:51:55;6.93;;;3.03;;
71298;SDS011;59083;47.974;21.722;2023-03-29T15:54:57;5.37;;;2.20;;
71298;SDS011;59083;47.974;21.722;2023-03-29T15:57:58;6.15;;;2.35;;
71298;SDS011;59083;47.974;21.722;2023-03-29T16:04:37;6.67;;;2.53;;
71298;SDS011;59083;47.974;21.722;2023-03-29T16:07:38;6.18;;;2.53;;
71298;SDS011;59083;47.974;21.722;2023-03-29T16:10:40;6.10;;;2.20;;
71298;SDS011;59083;47.974;21.722;2023-03-29T16:13:41;6.85;;;2.50;;
71298;SDS011;59083;47.974;21.722;2023-03-29T16:16:42;5.60;;;2.28;;
71298;SDS011;59083;47.974;21.722;2023-03-29T16:19:43;8.23;;;3.60;;
71298;SDS011;59083;47.974;21.722;2023-03-29T16:22:45;9.50;;;4.18;;
71298;SDS011;59083;47.974;21.722;2023-03-29T16:25:47;5.55;;;2.40;;
71298;SDS011;59083;47.974;21.722;2023-03-29T16:28:48;7.57;;;2.55;;
71298;SDS011;59083;47.974;21.722;2023-03-29T16:31:50;6.53;;;2.37;;
71298;SDS011;59083;47.974;21.722;2023-03-29T16:34:52;6.70;;;2.90;;
71298;SDS011;59083;47.974;21.722;2023-03-29T16:37:53;8.60;;;4.05;;
71298;SDS011;59083;47.974;21.722;2023-03-29T16:40:55;7.47;;;3.17;;
71298;SDS011;59083;47.974;21.722;2023-03-29T16:43:56;10.73;;;4.80;;
71298;SDS011;59083;47.974;21.722;2023-03-29T16:46:58;7.07;;;2.75;;
71298;SDS011;59083;47.974;21.722;2023-03-29T16:49:59;7.53;;;2.97;;
71298;SDS011;59083;47.974;21.722;2023-03-29T16:53:01;7.93;;;3.05;;
71298;SDS011;59083;47.974;21.722;2023-03-29T16:56:02;10.52;;;3.53;;
71298;SDS011;59083;47.974;21.722;2023-03-29T16:59:04;16.50;;;7.82;;
71298;SDS011;59083;47.974;21.722;2023-03-29T17:02:06;13.90;;;5.30;;
71298;SDS011;59083;47.974;21.722;2023-03-29T17:05:07;8.13;;;2.97;;
71298;SDS011;59083;47.974;21.722;2023-03-29T17:08:09;8.23;;;3.12;;
71298;SDS011;59083;47.974;21.722;2023-03-29T17:11:10;12.05;;;3.28;;
71298;SDS011;59083;47.974;21.722;2023-03-29T17:14:12;10.30;;;3.70;;
71298;SDS011;59083;47.974;21.722;2023-03-29T17:17:14;8.65;;;3.97;;
71298;SDS011;59083;47.974;21.722;2023-03-29T17:20:15;11.23;;;4.93;;
71298;SDS011;59083;47.974;21.722;2023-03-29T17:23:17;14.45;;;5.80;;
71298;SDS011;59083;47.974;21.722;2023-03-29T17:26:18;16.37;;;6.85;;
71298;SDS011;59083;47.974;21.722;2023-03-29T17:29:19;15.68;;;6.93;;
71298;SDS011;59083;47.974;21.722;2023-03-29T17:32:20;17.60;;;7.22;;
71298;SDS011;59083;47.974;21.722;2023-03-29T17:35:22;16.53;;;6.90;;
71298;SDS011;59083;47.974;21.722;2023-03-29T17:38:23;16.98;;;7.60;;
71298;SDS011;59083;47.974;21.722;2023-03-29T17:41:26;15.15;;;7.30;;
71298;SDS011;59083;47.974;21.722;2023-03-29T17:44:27;18.75;;;7.43;;
71298;SDS011;59083;47.974;21.722;2023-03-29T17:47:28;17.50;;;7.43;;
71298;SDS011;59083;47.974;21.722;2023-03-29T17:50:29;17.40;;;8.10;;
71298;SDS011;59083;47.974;21.722;2023-03-29T17:53:30;19.58;;;8.80;;
71298;SDS011;59083;47.974;21.722;2023-03-29T17:56:32;18.85;;;8.25;;
71298;SDS011;59083;47.974;21.722;2023-03-29T17:59:33;23.98;;;11.20;;
71298;SDS011;59083;47.974;21.722;2023-03-29T18:02:36;29.30;;;11.68;;
71298;SDS011;59083;47.974;21.722;2023-03-29T18:05:39;23.83;;;11.17;;
71298;SDS011;59083;47.974;21.722;2023-03-29T18:08:40;22.87;;;11.27;;
71298;SDS011;59083;47.974;21.722;2023-03-29T18:11:42;29.42;;;10.07;;
71298;SDS011;59083;47.974;21.722;2023-03-29T18:14:43;22.58;;;9.82;;
71298;SDS011;59083;47.974;21.722;2023-03-29T18:17:44;23.35;;;8.63;;
71298;SDS011;59083;47.974;21.722;2023-03-29T18:20:46;19.83;;;7.70;;
71298;SDS011;59083;47.974;21.722;2023-03-29T18:23:47;25.42;;;8.95;;
71298;SDS011;59083;47.974;21.722;2023-03-29T18:26:49;23.40;;;8.38;;
71298;SDS011;59083;47.974;21.722;2023-03-29T18:29:50;18.62;;;8.00;;
71298;SDS011;59083;47.974;21.722;2023-03-29T18:32:54;17.98;;;6.93;;
71298;SDS011;59083;47.974;21.722;2023-03-29T18:35:56;17.20;;;7.40;;
71298;SDS011;59083;47.974;21.722;2023-03-29T18:38:57;14.48;;;5.95;;
71298;SDS011;59083;47.974;21.722;2023-03-29T18:42:05;15.68;;;6.07;;
71298;SDS011;59083;47.974;21.722;2023-03-29T18:45:06;17.37;;;6.18;;
71298;SDS011;59083;47.974;21.722;2023-03-29T18:48:09;12.93;;;5.80;;
71298;SDS011;59083;47.974;21.722;2023-03-29T18:51:11;12.80;;;5.23;;
71298;SDS011;59083;47.974;21.722;2023-03-29T18:54:12;11.05;;;4.90;;
71298;SDS011;59083;47.974;21.722;2023-03-29T18:57:13;12.63;;;5.00;;
71298;SDS011;59083;47.974;21.722;2023-03-29T19:00:15;11.18;;;4.43;;
71298;SDS011;59083;47.974;21.722;2023-03-29T19:03:17;9.35;;;4.47;;
71298;SDS011;59083;47.974;21.722;2023-03-29T19:06:18;10.97;;;4.63;;
71298;SDS011;59083;47.974;21.722;2023-03-29T19:09:19;15.40;;;5.25;;
71298;SDS011;59083;47.974;21.722;2023-03-29T19:12:21;12.35;;;4.32;;
71298;SDS011;59083;47.974;21.722;2023-03-29T19:15:22;13.77;;;4.40;;
71298;SDS011;59083;47.974;21.722;2023-03-29T19:18:23;9.07;;;4.10;;
71298;SDS011;59083;47.974;21.722;2023-03-29T19:21:24;11.20;;;4.07;;
71298;SDS011;59083;47.974;21.722;2023-03-29T19:24:27;10.38;;;4.30;;
71298;SDS011;59083;47.974;21.722;2023-03-29T19:27:29;10.32;;;4.18;;
71298;SDS011;59083;47.974;21.722;2023-03-29T19:30:33;11.73;;;4.30;;
71298;SDS011;59083;47.974;21.722;2023-03-29T19:33:35;9.37;;;4.17;;
71298;SDS011;59083;47.974;21.722;2023-03-29T19:36:36;10.00;;;4.80;;
71298;SDS011;59083;47.974;21.722;2023-03-29T19:39:38;13.23;;;5.03;;
71298;SDS011;59083;47.974;21.722;2023-03-29T19:42:41;12.02;;;4.95;;
71298;SDS011;59083;47.974;21.722;2023-03-29T19:45:42;10.95;;;5.20;;
71298;SDS011;59083;47.974;21.722;2023-03-29T19:48:44;14.47;;;4.90;;
71298;SDS011;59083;47.974;21.722;2023-03-29T19:51:46;11.87;;;4.50;;